Time;durP1;ratioP1;P1;durP2;ratioP2;P2;SDS_P1;SDS_P2;PMS_P1;PMS_P2;Temp;Humidity;BMP_temperature;BMP_pressure;BME280_temperature;BME280_humidity;BME280_pressure;Samples;Min_cycle;Max_cycle;Signal;HPM_P1;HPM_P2
2022/12/25 00:01:14;;;;;;;0.45;0.45;;;;;;;6.20;100.00;99109.78;5035752;28;20033;-76
2022/12/25 00:03:39;;;;;;;0.70;0.70;;;;;;;6.29;100.00;99113.97;5036802;28;20030;-76
2022/12/25 00:06:05;;;;;;;0.47;0.47;;;;;;;6.19;100.00;99113.44;5018732;28;20053;-77
2022/12/25 00:08:32;;;;;;;0.50;0.50;;;;;;;6.13;100.00;99118.50;5018870;28;20471;-76
2022/12/25 00:11:02;;;;;;;0.50;0.50;;;;;;;6.06;100.00;99114.09;5051803;28;20044;-76
2022/12/25 00:13:29;;;;;;;0.40;0.40;;;;;;;6.12;100.00;99114.19;5018795;28;20471;-76
2022/12/25 00:15:54;;;;;;;0.50;0.50;;;;;;;6.10;100.00;99104.72;5002290;28;20472;-77
2022/12/25 00:18:21;;;;;;;0.43;0.43;;;;;;;6.18;100.00;99101.13;5002929;28;20036;-76
2022/12/25 00:20:59;;;;;;;0.50;0.50;;;;;;;6.18;100.00;99104.63;5018431;28;20040;-76
2022/12/25 00:23:26;;;;;;;0.40;0.40;;;;;;;6.09;100.00;99105.75;5035271;28;20140;-76
2022/12/25 00:25:52;;;;;;;0.50;0.50;;;;;;;6.07;100.00;99100.59;5035054;28;20045;-76
2022/12/25 00:28:18;;;;;;;0.50;0.50;;;;;;;5.97;100.00;99100.06;5002193;28;20124;-75
2022/12/25 00:30:44;;;;;;;0.50;0.50;;;;;;;5.94;100.00;99084.44;5035211;28;20044;-76
2022/12/25 00:33:10;;;;;;;0.50;0.50;;;;;;;5.93;100.00;99098.75;5002530;28;20041;-75
2022/12/25 00:35:35;;;;;;;0.50;0.50;;;;;;;5.89;100.00;99084.13;5002478;28;20056;-75
2022/12/25 00:38:01;;;;;;;0.50;0.50;;;;;;;5.98;100.00;99096.41;5018837;28;20116;-76
2022/12/25 00:40:27;;;;;;;0.40;0.40;;;;;;;6.01;100.00;99101.34;5002292;28;20067;-74
2022/12/25 00:42:52;;;;;;;0.40;0.40;;;;;;;5.96;100.00;99086.94;5002131;28;20033;-76
2022/12/25 00:45:18;;;;;;;0.40;0.40;;;;;;;6.03;100.00;99104.63;5002253;28;20033;-74
2022/12/25 00:47:44;;;;;;;0.50;0.50;;;;;;;6.10;100.00;99112.72;5018114;28;20045;-75
2022/12/25 00:50:10;;;;;;;0.60;0.60;;;;;;;6.09;100.00;99101.25;5018558;28;20043;-76
2022/12/25 00:52:36;;;;;;;0.50;0.50;;;;;;;6.09;100.00;99111.91;5018267;28;20056;-76
2022/12/25 00:55:02;;;;;;;0.40;0.40;;;;;;;6.09;100.00;99111.91;5034436;28;20037;-75
2022/12/25 00:57:28;;;;;;;0.50;0.50;;;;;;;6.08;100.00;99107.56;5018251;28;20472;-76
2022/12/25 00:59:53;;;;;;;0.50;0.50;;;;;;;6.06;100.00;99103.44;5018471;28;20044;-75
2022/12/25 01:02:22;;;;;;;0.45;0.45;;;;;;;6.07;100.00;99105.94;5018281;28;20044;-75
2022/12/25 01:04:49;;;;;;;0.60;0.60;;;;;;;6.08;100.00;99104.09;5050512;28;20049;-75
2022/12/25 01:07:17;;;;;;;0.50;0.50;;;;;;;6.13;100.00;99088.34;5032771;28;20434;-75
2022/12/25 01:12:32;;;;;;;0.40;0.40;;;;;;;6.42;100.00;99100.78;5048354;28;20060;-75
2022/12/25 01:14:57;;;;;;;0.47;0.47;;;;;;;6.43;100.00;99105.13;5034328;28;20125;-75
2022/12/25 01:17:23;;;;;;;0.50;0.50;;;;;;;6.50;100.00;99105.97;5017959;28;20236;-75
2022/12/25 01:19:49;;;;;;;0.50;0.50;;;;;;;6.51;100.00;99107.66;5001825;28;20123;-76
2022/12/25 01:22:15;;;;;;;0.40;0.40;;;;;;;6.58;100.00;99110.38;5001653;28;20120;-75
2022/12/25 01:24:44;;;;;;;0.40;0.40;;;;;;;6.63;100.00;99109.81;5001177;28;20464;-74
2022/12/25 01:27:10;;;;;;;0.50;0.50;;;;;;;6.75;100.00;99114.47;5001131;28;20029;-75
2022/12/25 01:29:36;;;;;;;0.40;0.40;;;;;;;6.83;100.00;99106.31;5001436;28;20468;-75
2022/12/25 01:32:03;;;;;;;0.40;0.40;;;;;;;7.02;100.00;99120.03;5050276;28;20112;-76
2022/12/25 01:34:29;;;;;;;0.45;0.45;;;;;;;7.16;100.00;99123.63;5001103;28;20516;-76
2022/12/25 01:36:55;;;;;;;0.50;0.50;;;;;;;7.26;100.00;99122.28;5033656;28;20057;-75
2022/12/25 01:39:20;;;;;;;0.40;0.40;;;;;;;7.20;100.00;99123.06;5001363;28;20033;-75
2022/12/25 01:41:47;;;;;;;0.63;0.63;;;;;;;7.10;100.00;99113.72;5017607;28;20033;-74
2022/12/25 01:44:13;;;;;;;0.50;0.50;;;;;;;6.98;100.00;99118.75;5050180;28;20030;-75
2022/12/25 01:46:39;;;;;;;0.40;0.40;;;;;;;6.89;100.00;99126.09;5017726;28;20463;-75
2022/12/25 01:49:17;;;;;;;0.50;0.50;;;;;;;6.88;100.00;99113.75;5017813;28;20064;-75
2022/12/25 01:51:57;;;;;;;0.40;0.40;;;;;;;6.94;100.00;99125.53;5016933;28;20036;-75
2022/12/25 01:54:34;;;;;;;0.50;0.50;;;;;;;6.94;100.00;99129.00;5017093;28;20029;-76
2022/12/25 01:57:02;;;;;;;0.50;0.50;;;;;;;6.92;100.00;99122.22;5000779;28;20119;-75
2022/12/25 01:59:28;;;;;;;0.50;0.50;;;;;;;6.85;100.00;99111.44;5000767;28;20460;-75
2022/12/25 02:01:55;;;;;;;0.40;0.40;;;;;;;6.87;100.00;99113.94;5000522;28;20044;-75
2022/12/25 02:04:37;;;;;;;0.45;0.45;;;;;;;6.87;100.00;99106.75;5033218;28;20036;-75
2022/12/25 02:07:07;;;;;;;0.50;0.50;;;;;;;6.95;100.00;99117.28;5034397;28;20052;-75
2022/12/25 02:09:33;;;;;;;0.40;0.40;;;;;;;6.98;100.00;99116.09;5016913;28;20487;-75
2022/12/25 02:11:59;;;;;;;0.40;0.40;;;;;;;7.05;100.00;99119.66;5000396;28;20033;-75
2022/12/25 02:14:27;;;;;;;0.43;0.43;;;;;;;7.03;100.00;99114.47;5033247;28;20116;-75
2022/12/25 02:17:07;;;;;;;0.50;0.50;;;;;;;7.05;100.00;99112.44;5000503;28;20491;-77
2022/12/25 02:19:55;;;;;;;0.40;0.40;;;;;;;6.99;100.00;99080.34;5017346;28;20124;-74
2022/12/25 02:22:32;;;;;;;0.50;0.50;;;;;;;7.00;100.00;99098.00;5016992;28;20120;-75
2022/12/25 02:25:16;;;;;;;0.50;0.50;;;;;;;6.93;100.00;99108.66;5000526;28;20063;-74
2022/12/25 02:28:19;;;;;;;0.40;0.40;;;;;;;6.94;100.00;99099.63;5016810;28;20038;-74
2022/12/25 02:31:00;;;;;;;0.50;0.50;;;;;;;6.99;100.00;99107.06;5032463;28;20029;-74
2022/12/25 02:36:24;;;;;;;0.50;0.50;;;;;;;6.95;100.00;99105.78;5006146;28;20045;-77
2022/12/25 02:41:59;;;;;;;0.50;0.50;;;;;;;6.81;100.00;99107.53;4995536;28;20042;-75
2022/12/25 03:06:42;;;;;;;0.50;0.50;;;;;;;7.28;100.00;99098.03;5031779;28;20438;-76
2022/12/25 03:12:03;;;;;;;0.50;0.50;;;;;;;7.19;100.00;99096.50;5004747;28;20037;-75
2022/12/25 03:17:13;;;;;;;0.50;0.50;;;;;;;7.32;100.00;99109.97;5032151;28;20036;-75
2022/12/25 03:27:56;;;;;;;0.60;0.60;;;;;;;7.43;100.00;99124.66;5018592;28;20029;-76
2022/12/25 03:33:32;;;;;;;0.43;0.43;;;;;;;7.44;100.00;99131.66;5022427;28;20128;-75
2022/12/25 03:36:13;;;;;;;0.40;0.40;;;;;;;7.32;100.00;99133.22;5036152;28;20088;-75
2022/12/25 04:37:47;;;;;;;0.50;0.50;;;;;;;6.06;100.00;99087.44;5026981;28;20059;-75
2022/12/25 04:40:14;;;;;;;0.50;0.50;;;;;;;5.98;100.00;99084.88;5002346;28;20823;-75
2022/12/25 04:42:40;;;;;;;0.57;0.57;;;;;;;6.00;100.00;99082.84;5002196;28;20471;-75
2022/12/25 04:45:07;;;;;;;0.60;0.60;;;;;;;6.03;100.00;99083.28;5035149;28;20041;-74
2022/12/25 04:47:32;;;;;;;0.47;0.47;;;;;;;6.09;100.00;99087.91;5018424;28;20060;-75
2022/12/25 04:49:58;;;;;;;0.50;0.50;;;;;;;6.19;100.00;99082.25;5018407;28;20510;-77
2022/12/25 04:52:24;;;;;;;0.50;0.50;;;;;;;6.28;100.00;99086.47;5002045;28;20270;-74
2022/12/25 04:54:49;;;;;;;0.40;0.40;;;;;;;6.44;100.00;99104.09;5002225;28;20038;-74
2022/12/25 04:57:16;;;;;;;0.40;0.40;;;;;;;6.54;100.00;99096.59;5018291;28;20088;-75
2022/12/25 04:59:41;;;;;;;0.50;0.50;;;;;;;6.62;100.00;99105.50;5001911;28;20057;-76
2022/12/25 05:02:07;;;;;;;0.43;0.43;;;;;;;6.63;100.00;99099.13;5018218;28;20068;-75
2022/12/25 05:04:33;;;;;;;0.40;0.40;;;;;;;6.66;100.00;99099.56;5002031;28;20452;-74
2022/12/25 05:06:58;;;;;;;0.40;0.40;;;;;;;6.64;100.00;99088.25;5001450;28;20034;-75
2022/12/25 05:09:25;;;;;;;0.40;0.40;;;;;;;6.70;100.00;99090.16;5001916;28;20099;-75
2022/12/25 05:11:51;;;;;;;0.40;0.40;;;;;;;6.68;100.00;99089.53;5001674;28;20053;-75
2022/12/25 05:14:16;;;;;;;0.50;0.50;;;;;;;6.73;100.00;99091.63;5001664;28;20053;-75
2022/12/25 05:16:42;;;;;;;0.50;0.50;;;;;;;6.66;100.00;99086.22;5001396;28;20059;-77
2022/12/25 05:19:08;;;;;;;0.40;0.40;;;;;;;6.64;100.00;99079.41;5001229;28;20388;-76
2022/12/25 05:21:34;;;;;;;0.50;0.50;;;;;;;6.61;100.00;99077.94;5033977;28;20127;-75
2022/12/25 05:24:00;;;;;;;0.40;0.40;;;;;;;6.54;100.00;99077.91;5001539;28;20119;-75
2022/12/25 05:26:26;;;;;;;0.50;0.50;;;;;;;6.53;100.00;99076.22;5001352;28;20029;-74
2022/12/25 05:28:52;;;;;;;0.50;0.50;;;;;;;6.51;100.00;99082.78;5017235;28;20038;-74
2022/12/25 05:31:18;;;;;;;0.50;0.50;;;;;;;6.52;100.00;99077.25;5017197;28;20034;-75
2022/12/25 05:33:43;;;;;;;0.60;0.60;;;;;;;6.45;100.00;99073.69;5001287;28;20487;-75
2022/12/25 05:36:11;;;;;;;0.40;0.40;;;;;;;6.33;100.00;99061.88;5017508;28;20121;-74
2022/12/25 05:38:37;;;;;;;0.50;0.50;;;;;;;6.25;100.00;99064.66;5017538;28;20029;-74
2022/12/25 05:41:03;;;;;;;0.40;0.40;;;;;;;6.20;100.00;99072.41;5033763;28;20045;-75
2022/12/25 05:43:29;;;;;;;0.50;0.50;;;;;;;6.14;100.00;99074.00;5017134;28;20037;-75
2022/12/25 05:45:55;;;;;;;0.55;0.55;;;;;;;6.09;100.00;99069.22;5001052;28;20432;-76
2022/12/25 05:48:21;;;;;;;0.50;0.50;;;;;;;6.08;100.00;99070.22;5017034;28;20038;-75
2022/12/25 05:50:47;;;;;;;0.43;0.43;;;;;;;6.14;100.00;99077.50;5017395;28;20122;-75
2022/12/25 05:53:14;;;;;;;0.40;0.40;;;;;;;6.15;100.00;99070.31;5016544;28;20034;-75
2022/12/25 05:55:44;;;;;;;0.40;0.40;;;;;;;6.13;100.00;99067.81;5033264;28;20037;-74
2022/12/25 05:58:11;;;;;;;0.50;0.50;;;;;;;6.21;100.00;99074.06;5049545;28;20037;-75
2022/12/25 06:00:37;;;;;;;0.50;0.50;;;;;;;6.25;100.00;99080.69;5000680;28;20041;-75
2022/12/25 06:03:03;;;;;;;0.50;0.50;;;;;;;6.30;100.00;99078.28;5017160;28;20029;-75
2022/12/25 06:05:29;;;;;;;0.40;0.40;;;;;;;6.38;100.00;99080.81;5016593;28;20076;-75
2022/12/25 06:07:55;;;;;;;0.50;0.50;;;;;;;6.48;100.00;99088.50;5016939;28;20045;-74
2022/12/25 06:10:20;;;;;;;0.50;0.50;;;;;;;6.58;100.00;99081.00;5016826;28;20391;-75
2022/12/25 06:12:46;;;;;;;0.50;0.50;;;;;;;6.70;100.00;99087.50;5016988;28;20464;-75
2022/12/25 06:15:12;;;;;;;0.50;0.50;;;;;;;6.80;100.00;99077.31;5000649;28;20074;-75
2022/12/25 06:17:38;;;;;;;0.47;0.47;;;;;;;6.89;100.00;99079.84;5000589;28;20056;-75
2022/12/25 06:20:04;;;;;;;0.40;0.40;;;;;;;6.92;100.00;99066.91;5016760;28;20037;-76
2022/12/25 06:22:31;;;;;;;0.40;0.40;;;;;;;7.00;100.00;99077.47;5000342;28;20042;-75
2022/12/25 06:24:57;;;;;;;0.45;0.45;;;;;;;7.00;100.00;99069.44;5032840;28;20044;-75
2022/12/25 06:27:23;;;;;;;0.60;0.60;;;;;;;6.92;100.00;99037.53;5000163;28;20038;-74
2022/12/25 06:29:49;;;;;;;0.40;0.40;;;;;;;6.93;100.00;99052.56;5032987;28;20080;-76
2022/12/25 06:32:14;;;;;;;0.43;0.43;;;;;;;6.81;100.00;99052.25;5000358;28;20124;-74
2022/12/25 06:34:40;;;;;;;0.40;0.40;;;;;;;6.73;100.00;99063.06;5016542;28;20029;-75
2022/12/25 06:37:06;;;;;;;0.40;0.40;;;;;;;6.69;100.00;99075.13;5000226;28;20467;-75
2022/12/25 06:39:32;;;;;;;0.50;0.50;;;;;;;6.60;100.00;99085.13;5016637;28;20029;-75
2022/12/25 06:41:57;;;;;;;0.40;0.40;;;;;;;6.55;100.00;99076.03;5049336;28;20045;-74
2022/12/25 06:44:23;;;;;;;0.50;0.50;;;;;;;6.45;100.00;99078.22;5032879;28;20060;-74
2022/12/25 06:46:53;;;;;;;0.40;0.40;;;;;;;6.28;100.00;99075.78;4999768;28;20025;-74
2022/12/25 06:49:19;;;;;;;0.43;0.43;;;;;;;6.14;100.00;99068.66;5000110;28;20033;-75
2022/12/25 06:51:45;;;;;;;0.40;0.40;;;;;;;6.04;100.00;99060.13;5032596;28;20029;-75
2022/12/25 06:54:11;;;;;;;0.50;0.50;;;;;;;5.94;100.00;99065.75;5032776;28;20033;-75
2022/12/25 06:56:36;;;;;;;0.50;0.50;;;;;;;5.98;100.00;99063.53;5000039;28;20035;-75
2022/12/25 06:59:04;;;;;;;0.40;0.40;;;;;;;5.98;100.00;99063.53;5016450;28;20045;-75
2022/12/25 07:01:33;;;;;;;0.50;0.50;;;;;;;5.97;100.00;99068.03;5016214;28;20048;-75
2022/12/25 07:04:03;;;;;;;0.50;0.50;;;;;;;5.97;100.00;99069.88;5015383;28;20476;-75
2022/12/25 07:06:28;;;;;;;0.43;0.43;;;;;;;5.99;100.00;99070.53;5015602;28;20061;-75
2022/12/25 07:08:54;;;;;;;0.40;0.40;;;;;;;6.08;100.00;99062.22;5016058;28;20076;-75
2022/12/25 07:11:21;;;;;;;0.50;0.50;;;;;;;6.21;100.00;99068.72;4999882;28;20091;-76
2022/12/25 07:13:46;;;;;;;0.50;0.50;;;;;;;6.26;100.00;99074.31;4999748;28;20498;-77
2022/12/25 07:16:13;;;;;;;0.40;0.40;;;;;;;6.43;100.00;99066.88;5015971;28;20026;-76
2022/12/25 07:18:40;;;;;;;0.50;0.50;;;;;;;6.51;100.00;99064.94;5016006;28;20039;-75
2022/12/25 07:21:08;;;;;;;0.50;0.50;;;;;;;6.56;100.00;99073.19;4999242;28;20048;-76
2022/12/25 07:23:34;;;;;;;0.45;0.45;;;;;;;6.58;100.00;99071.13;5031789;28;20052;-75
2022/12/25 07:26:01;;;;;;;0.50;0.50;;;;;;;6.52;100.00;99077.25;4999303;28;20384;-75
2022/12/25 07:28:27;;;;;;;0.50;0.50;;;;;;;6.41;100.00;99080.44;5031860;28;20026;-76
2022/12/25 07:30:53;;;;;;;0.40;0.40;;;;;;;6.19;100.00;99068.91;5031859;28;20041;-75
2022/12/25 07:33:19;;;;;;;0.50;0.50;;;;;;;6.09;100.00;99079.06;4999397;28;20037;-75
2022/12/25 07:35:44;;;;;;;0.50;0.50;;;;;;;6.04;100.00;99076.13;4999501;28;20095;-75
2022/12/25 07:38:10;;;;;;;0.40;0.40;;;;;;;5.97;100.00;99076.03;4998887;28;20103;-77
2022/12/25 07:40:37;;;;;;;0.40;0.40;;;;;;;6.03;100.00;99077.97;4999148;28;20395;-75
2022/12/25 07:43:03;;;;;;;0.50;0.50;;;;;;;6.07;100.00;99084.59;5015739;28;20061;-75
2022/12/25 07:45:29;;;;;;;0.43;0.43;;;;;;;6.14;100.00;99085.50;4999093;28;20091;-74
2022/12/25 07:47:54;;;;;;;0.40;0.40;;;;;;;6.20;100.00;99077.75;4999219;28;20427;-75
2022/12/25 07:50:20;;;;;;;0.40;0.40;;;;;;;6.34;100.00;99084.88;5015237;28;20483;-76
2022/12/25 07:52:46;;;;;;;0.50;0.50;;;;;;;6.50;100.00;99089.97;5015501;28;20082;-76
2022/12/25 07:55:12;;;;;;;0.50;0.50;;;;;;;6.57;100.00;99084.69;4999120;28;20034;-75
2022/12/25 07:57:38;;;;;;;0.50;0.50;;;;;;;6.60;100.00;99089.66;4999171;28;20056;-76
2022/12/25 08:00:07;;;;;;;0.43;0.43;;;;;;;6.60;100.00;99085.13;4999063;28;20120;-75
2022/12/25 08:02:33;;;;;;;0.40;0.40;;;;;;;6.63;100.00;99093.78;5015144;28;20053;-75
2022/12/25 08:04:58;;;;;;;0.47;0.47;;;;;;;6.58;100.00;99081.81;5014956;28;20383;-76
2022/12/25 08:07:26;;;;;;;0.40;0.40;;;;;;;6.48;100.00;99080.50;5014953;28;20192;-75
2022/12/25 08:09:51;;;;;;;0.50;0.50;;;;;;;6.28;100.00;99082.97;4999156;28;20128;-75
2022/12/25 08:12:20;;;;;;;0.40;0.40;;;;;;;6.08;100.00;99080.88;5015066;28;20116;-75
2022/12/25 08:14:46;;;;;;;0.40;0.40;;;;;;;6.05;100.00;99091.13;4998963;28;20044;-76
2022/12/25 08:17:11;;;;;;;0.50;0.50;;;;;;;5.92;100.00;99086.41;5002224;28;20030;-76
2022/12/25 08:19:37;;;;;;;0.50;0.50;;;;;;;5.89;100.00;99081.47;5002335;28;20048;-75
2022/12/25 08:22:03;;;;;;;0.40;0.40;;;;;;;5.87;100.00;99086.16;5002623;28;20056;-76
2022/12/25 08:24:29;;;;;;;0.40;0.40;;;;;;;5.83;100.00;99095.56;5019079;28;20037;-76
2022/12/25 08:26:54;;;;;;;0.50;0.50;;;;;;;5.84;100.00;99091.84;5002408;28;20099;-76
2022/12/25 08:29:20;;;;;;;0.40;0.40;;;;;;;5.79;100.00;99092.41;5018748;28;20037;-76
2022/12/25 08:31:46;;;;;;;0.50;0.50;;;;;;;5.71;100.00;99096.00;5002205;28;20029;-76
2022/12/25 08:34:11;;;;;;;0.40;0.40;;;;;;;5.71;100.00;99108.50;5018994;28;20464;-74
2022/12/25 08:36:37;;;;;;;0.40;0.40;;;;;;;5.82;100.00;99094.72;5002458;28;20502;-75
2022/12/25 08:39:04;;;;;;;0.60;0.60;;;;;;;5.93;100.00;99098.75;5001786;28;20471;-77
2022/12/25 08:41:30;;;;;;;0.50;0.50;;;;;;;6.03;100.00;99103.81;5002139;28;20068;-75
2022/12/25 08:43:57;;;;;;;0.40;0.40;;;;;;;6.01;100.00;99104.03;5001655;28;20505;-75
2022/12/25 08:46:23;;;;;;;0.50;0.50;;;;;;;5.99;100.00;99103.38;5017805;28;20029;-75
2022/12/25 08:48:49;;;;;;;0.40;0.40;;;;;;;5.97;100.00;99101.91;5018051;28;20051;-76
2022/12/25 08:51:17;;;;;;;0.50;0.50;;;;;;;5.96;100.00;99102.94;5034663;28;20040;-75
2022/12/25 08:53:45;;;;;;;0.60;0.60;;;;;;;5.86;100.00;99092.50;5002060;28;20030;-76
2022/12/25 08:56:12;;;;;;;0.47;0.47;;;;;;;6.00;100.00;99114.88;5001933;28;20029;-75
2022/12/25 08:58:38;;;;;;;0.50;0.50;;;;;;;6.02;100.00;99116.34;5050893;28;20030;-76
2022/12/25 09:01:04;;;;;;;0.40;0.40;;;;;;;6.08;100.00;99118.25;5001560;28;20034;-75
2022/12/25 09:03:33;;;;;;;0.50;0.50;;;;;;;6.13;100.00;99120.38;5001502;28;20064;-77
2022/12/25 09:06:04;;;;;;;0.40;0.40;;;;;;;6.15;100.00;99123.69;5017000;28;20482;-76
2022/12/25 09:08:30;;;;;;;0.43;0.43;;;;;;;6.23;100.00;99125.41;5017134;28;20068;-75
2022/12/25 09:10:57;;;;;;;0.40;0.40;;;;;;;6.28;100.00;99128.34;5033501;28;20068;-76
2022/12/25 09:13:22;;;;;;;0.40;0.40;;;;;;;6.24;100.00;99121.72;5017193;28;20040;-77
2022/12/25 09:15:48;;;;;;;0.50;0.50;;;;;;;6.26;100.00;99120.50;5017261;28;20037;-76
2022/12/25 09:18:14;;;;;;;0.50;0.50;;;;;;;6.26;100.00;99117.03;5017143;28;20034;-76
2022/12/25 09:20:39;;;;;;;0.50;0.50;;;;;;;6.45;100.00;99129.75;5000790;28;20040;-76
2022/12/25 09:23:05;;;;;;;0.40;0.40;;;;;;;6.44;100.00;99136.13;5000639;28;20365;-76
2022/12/25 09:25:31;;;;;;;0.40;0.40;;;;;;;6.54;100.00;99133.16;5000664;28;20045;-77
2022/12/25 09:27:57;;;;;;;0.50;0.50;;;;;;;6.65;100.00;99131.81;5015806;28;20132;-77
2022/12/25 09:30:23;;;;;;;0.60;0.60;;;;;;;6.69;100.00;99138.41;5000454;28;20038;-77
2022/12/25 09:32:49;;;;;;;0.43;0.43;;;;;;;6.67;100.00;99127.09;5000408;28;20083;-77
2022/12/25 09:35:17;;;;;;;0.40;0.40;;;;;;;6.69;100.00;99136.56;5000616;28;20049;-77
2022/12/25 09:37:42;;;;;;;0.43;0.43;;;;;;;6.70;100.00;99140.91;5000736;28;20037;-76
2022/12/25 09:40:14;;;;;;;0.50;0.50;;;;;;;6.69;100.00;99138.41;5032856;28;20025;-77
2022/12/25 09:42:41;;;;;;;0.40;0.40;;;;;;;6.74;100.00;99141.34;5016138;28;20120;-76
2022/12/25 09:45:14;;;;;;;0.50;0.50;;;;;;;6.65;100.00;99134.50;5016538;28;20045;-76
2022/12/25 09:47:42;;;;;;;0.55;0.55;;;;;;;6.89;100.00;99142.13;5016235;28;20472;-77
2022/12/25 09:50:45;;;;;;;0.47;0.47;;;;;;;6.99;100.00;99134.59;5000254;28;20033;-75
2022/12/25 09:53:23;;;;;;;0.50;0.50;;;;;;;7.10;100.00;99145.81;5014025;28;20112;-75
2022/12/25 09:56:03;;;;;;;0.50;0.50;;;;;;;7.79;100.00;99140.50;5016804;28;20029;-75
2022/12/25 09:58:29;;;;;;;0.70;0.70;;;;;;;7.87;100.00;99118.94;5017415;28;20468;-75
2022/12/25 10:01:21;;;;;;;0.50;0.50;;;;;;;8.41;100.00;99138.75;5000915;28;20124;-74
2022/12/25 10:04:33;;;;;;;0.70;0.70;;;;;;;8.52;100.00;99135.50;5012921;28;20044;-76
2022/12/25 10:07:17;;;;;;;0.50;0.50;;;;;;;8.80;100.00;99131.81;5021426;28;20041;-76
2022/12/25 10:09:52;;;;;;;0.50;0.50;;;;;;;9.19;100.00;99128.34;5017810;28;20033;-77
2022/12/25 10:12:32;;;;;;;0.50;0.50;;;;;;;9.51;100.00;99139.25;5017109;28;20044;-76
2022/12/25 10:15:10;;;;;;;0.60;0.60;;;;;;;9.66;100.00;99133.66;5017025;28;20083;-77
2022/12/25 10:17:36;;;;;;;0.60;0.60;;;;;;;10.60;100.00;99134.16;5016904;28;20080;-78
2022/12/25 10:20:22;;;;;;;0.60;0.60;;;;;;;11.57;100.00;99142.72;5016944;28;20424;-76
2022/12/25 10:22:58;;;;;;;0.60;0.60;;;;;;;12.13;100.00;99141.75;5032815;28;20467;-77
2022/12/25 10:25:24;;;;;;;0.55;0.55;;;;;;;12.41;100.00;99141.19;5016845;28;20094;-77
2022/12/25 10:27:53;;;;;;;0.60;0.60;;;;;;;12.73;100.00;99133.69;5049617;28;20034;-76
2022/12/25 10:30:21;;;;;;;0.65;0.65;;;;;;;12.92;100.00;99133.63;5032914;28;20044;-76
2022/12/25 10:32:48;;;;;;;0.60;0.60;;;;;;;13.09;100.00;99147.25;5033119;28;20041;-76
2022/12/25 10:35:15;;;;;;;0.63;0.63;;;;;;;12.87;100.00;99150.50;5016721;28;20179;-75
2022/12/25 10:37:42;;;;;;;0.70;0.70;;;;;;;12.95;100.00;99149.34;4999869;28;20025;-76
2022/12/25 10:40:39;;;;;;;0.60;0.60;;;;;;;13.34;99.33;99161.44;5000098;28;20034;-76
2022/12/25 10:43:20;;;;;;;0.70;0.70;;;;;;;13.51;97.90;99145.34;5032472;28;20040;-74
2022/12/25 10:45:48;;;;;;;0.60;0.60;;;;;;;13.05;99.67;99151.50;5016428;28;20139;-75
2022/12/25 10:48:27;;;;;;;0.70;0.70;;;;;;;12.70;100.00;99158.44;5016445;28;20176;-75
2022/12/25 10:50:54;;;;;;;0.70;0.70;;;;;;;13.13;100.00;99156.56;5029689;28;20538;-74
2022/12/25 10:53:23;;;;;;;0.60;0.60;;;;;;;13.37;100.00;99152.03;5016433;28;20107;-73
2022/12/25 10:56:14;;;;;;;0.68;0.68;;;;;;;13.39;100.00;99168.84;5032850;28;20029;-73
2022/12/25 10:58:40;;;;;;;0.70;0.70;;;;;;;13.36;100.00;99164.72;5026403;28;20120;-74
2022/12/25 11:01:06;;;;;;;0.40;0.40;;;;;;;12.60;100.00;99163.53;5000006;28;20515;-74
2022/12/25 11:03:34;;;;;;;0.40;0.40;;;;;;;11.39;100.00;99159.66;4999996;28;20045;-74
2022/12/25 11:06:01;;;;;;;0.55;0.55;;;;;;;10.76;100.00;99150.59;5016133;28;20036;-74
2022/12/25 11:08:29;;;;;;;0.70;0.70;;;;;;;10.44;100.00;99154.28;5016103;28;20029;-74
2022/12/25 11:11:07;;;;;;;0.60;0.60;;;;;;;10.44;100.00;99160.47;5016100;28;20040;-74
2022/12/25 11:13:41;;;;;;;0.60;0.60;;;;;;;11.27;100.00;99164.91;5016089;28;20030;-73
2022/12/25 11:16:13;;;;;;;0.80;0.80;;;;;;;13.72;100.00;99156.63;5016136;28;20040;-74
2022/12/25 11:18:59;;;;;;;0.65;0.65;;;;;;;14.51;100.00;99165.88;5015912;28;20022;-74
2022/12/25 11:21:28;;;;;;;0.80;0.80;;;;;;;14.40;100.00;99153.22;4999192;28;20142;-75
2022/12/25 11:24:24;;;;;;;0.70;0.70;;;;;;;14.12;100.00;99150.47;5016138;28;20022;-73
2022/12/25 11:26:52;;;;;;;2.80;1.15;;;;;;;13.56;100.00;99148.16;5015874;28;20033;-75
2022/12/25 11:29:36;;;;;;;3.92;0.95;;;;;;;12.98;100.00;99146.19;5015583;28;20047;-75
2022/12/25 11:32:04;;;;;;;1.60;1.00;;;;;;;11.97;100.00;99140.47;4999719;28;20092;-74
2022/12/25 11:34:31;;;;;;;2.78;0.90;;;;;;;11.07;100.00;99134.66;5015448;28;20034;-74
2022/12/25 11:36:58;;;;;;;1.67;0.90;;;;;;;10.92;100.00;99143.03;4999608;28;20041;-74
2022/12/25 11:39:35;;;;;;;2.65;1.45;;;;;;;10.73;100.00;99145.66;4999720;28;20183;-75
2022/12/25 11:42:04;;;;;;;2.47;2.28;;;;;;;10.64;100.00;99146.97;5031678;28;20365;-74
2022/12/25 11:44:44;;;;;;;2.78;1.58;;;;;;;10.54;100.00;99141.22;5031860;28;20091;-74
2022/12/25 11:47:21;;;;;;;2.25;1.05;;;;;;;10.57;100.00;99135.41;5015481;28;20042;-74
2022/12/25 11:49:55;;;;;;;4.20;1.25;;;;;;;10.85;100.00;99153.00;5032279;28;20037;-73
2022/12/25 11:52:31;;;;;;;7.30;1.75;;;;;;;11.84;100.00;99145.97;5002958;28;20045;-74
2022/12/25 11:55:06;;;;;;;2.00;1.20;;;;;;;11.55;100.00;99142.13;5020534;28;20067;-74
2022/12/25 11:57:33;;;;;;;9.95;2.97;;;;;;;11.23;100.00;99139.50;5019780;28;20038;-73
2022/12/25 12:00:07;;;;;;;2.40;1.70;;;;;;;10.93;100.00;99139.34;5003514;28;20076;-74
2022/12/25 12:02:42;;;;;;;5.32;1.83;;;;;;;10.69;100.00;99136.38;5052367;28;20033;-74
2022/12/25 12:05:20;;;;;;;5.63;2.60;;;;;;;10.42;100.00;99138.38;5019708;28;20041;-74
2022/12/25 12:08:05;;;;;;;2.00;1.35;;;;;;;10.05;100.00;99145.31;5003952;28;20099;-74
2022/12/25 12:10:42;;;;;;;5.15;1.80;;;;;;;9.75;100.00;99145.81;5019285;28;20034;-74
2022/12/25 12:13:30;;;;;;;5.53;2.08;;;;;;;9.56;100.00;99139.47;5035640;28;20052;-74
2022/12/25 12:15:57;;;;;;;4.43;2.13;;;;;;;9.89;100.00;99150.09;5019114;28;20033;-74
2022/12/25 12:18:22;;;;;;;7.65;1.58;;;;;;;10.41;100.00;99147.47;5019292;28;20080;-74
2022/12/25 12:21:06;;;;;;;2.63;1.55;;;;;;;10.49;100.00;99139.16;5019183;28;20061;-72
2022/12/25 12:24:08;;;;;;;3.22;1.42;;;;;;;10.45;100.00;99143.34;5019351;28;20037;-74
2022/12/25 12:26:36;;;;;;;6.57;2.22;;;;;;;10.20;100.00;99134.31;5035332;28;20038;-74
2022/12/25 12:29:05;;;;;;;5.50;1.35;;;;;;;9.86;100.00;99112.94;5035293;28;20053;-74
2022/12/25 12:31:41;;;;;;;6.18;1.73;;;;;;;9.85;100.00;99135.47;5002717;28;20073;-75
2022/12/25 12:34:23;;;;;;;5.72;2.63;;;;;;;9.87;100.00;99151.34;5002613;28;20036;-75
2022/12/25 12:36:50;;;;;;;5.07;1.50;;;;;;;9.85;100.00;99150.75;5003346;28;20059;-75
2022/12/25 12:39:31;;;;;;;2.67;1.63;;;;;;;9.78;100.00;99128.47;5018786;28;20033;-75
2022/12/25 12:41:56;;;;;;;6.75;2.53;;;;;;;9.94;100.00;99144.13;5002941;28;20038;-75
2022/12/25 12:44:25;;;;;;;8.18;2.17;;;;;;;10.06;100.00;99145.13;5018645;28;20049;-75
2022/12/25 12:46:56;;;;;;;8.85;2.10;;;;;;;10.28;100.00;99144.84;5018430;28;20379;-74
2022/12/25 12:49:23;;;;;;;4.93;1.98;;;;;;;10.55;100.00;99145.53;5002470;28;20048;-75
2022/12/25 12:52:03;;;;;;;8.05;1.75;;;;;;;10.76;100.00;99141.69;5018737;28;20118;-74
2022/12/25 12:54:29;;;;;;;1.20;1.10;;;;;;;10.84;100.00;99137.94;5018660;28;20029;-74
2022/12/25 12:57:03;;;;;;;7.95;2.67;;;;;;;10.84;100.00;99136.06;5002144;28;20026;-74
2022/12/25 12:59:47;;;;;;;7.43;2.10;;;;;;;10.63;100.00;99139.09;5018296;28;20119;-75
2022/12/25 13:02:57;;;;;;;2.97;2.22;;;;;;;10.26;100.00;99131.59;5002026;28;20041;-75
2022/12/25 13:05:23;;;;;;;9.57;2.83;;;;;;;10.05;100.00;99142.63;5024450;28;20095;-75
2022/12/25 13:08:14;;;;;;;6.55;2.15;;;;;;;10.01;100.00;99149.47;5017891;28;20025;-75
2022/12/25 13:10:44;;;;;;;5.18;2.22;;;;;;;9.98;100.00;99134.63;5001938;28;20087;-75
2022/12/25 13:13:34;;;;;;;7.82;2.28;;;;;;;9.97;100.00;99129.44;5018151;28;20041;-74
2022/12/25 13:16:02;;;;;;;10.88;2.97;;;;;;;9.96;100.00;99136.69;5034791;28;20042;-75
2022/12/25 13:18:29;;;;;;;6.78;2.45;;;;;;;9.87;100.00;99124.50;5018187;28;20034;-75
2022/12/25 13:20:58;;;;;;;12.85;3.72;;;;;;;9.77;100.00;99133.03;5001441;28;20088;-75
2022/12/25 13:23:34;;;;;;;11.25;3.20;;;;;;;9.63;100.00;99132.22;5017951;28;20112;-75
2022/12/25 13:26:05;;;;;;;8.55;4.10;;;;;;;9.54;100.00;99136.16;5001867;28;20032;-76
2022/12/25 13:28:33;;;;;;;8.57;2.25;;;;;;;9.47;100.00;99135.31;5001695;28;20045;-75
2022/12/25 13:31:06;;;;;;;2.03;1.23;;;;;;;9.40;100.00;99137.22;5001831;28;20140;-74